Amherst, MA (01004)

12:53 PM EDT on April 23, 2017 (GMT -0400)
Amherst College | | Change Station

Elev 348 ft 42.37 °N, 72.52 °W | Updated 14 seconds ago

Clear
Clear
62.2 °F
Feels Like 62.2 °F
N
2.9
Wind Variable Wind from North

Today
High -- | Low -- °F
--% Chance of Precip.
Yesterday
High -- | Low -- °F
Precip. -- in
Pressure 30.10 in
Visibility 10.0 miles
Clouds Clear
Dew Point 37 °F
Humidity 38%
Rainfall 0.00 in
Snow Depth Not available.
5:56 AM 7:41 PM
Waning Crescent, 11% visible
METAR KCEF 231558Z 00000KT 10SM CLR 14/01 A3008 RMK AO2A SLP192 T01400007
Pressure 30.10 in
Visibility 10.0 miles
Clouds Clear
Dew Point 37 °F
Humidity 38%
Rainfall 0.00 in
Snow Depth Not available.
5:56 AM 7:41 PM
Waning Crescent, 11% visible
METAR KCEF 231558Z 00000KT 10SM CLR 14/01 A3008 RMK AO2A SLP192 T01400007

Get Severe Weather Alerts

Thanks for signing up!

Be on the lookout for a verification email in your inbox.

You'll start receiving the daily forecast at 8 AM.

×

10-Day Weather Forecast

Almanac

Astronomy

Apr. 23, 2017 Rise Set
Actual Time
Civil Twilight
Nautical Twilight
Astronomical Twilight
Moon
Length of Visible Light
Length of Day
Tomorrow will be .
, % of the Moon is Illuminated

Today's Extremes

State Highs State Lows

Community

WunderPhotos

WunderBlog® & News

Nearby

Air Quality

  Air Quality AQ Index Pollutant
Not available.

Snow Depth

Station Depth Elevation

Earthquake Activity

City Distance Mag. Time & Date
Minimum magnitude displayed is 2.5.

Coastal Water Temperatures

Place Temperature

Stations

Nearby Weather Stations

Station Location Temp. Windchill Dew Point Humidity Wind Precip. Elev Updated Type
                   

Watches & Warnings

There are currently no watches in effect.